sensor_id;sensor_type;location;lat;lon;timestamp;temperature;humidity
52034;DHT22;38045;52.988;6.536;2023-11-21T00:02:02;8.40;80.40
52034;DHT22;38045;52.988;6.536;2023-11-21T00:04:29;8.40;80.40
52034;DHT22;38045;52.988;6.536;2023-11-21T00:06:55;8.40;80.40
52034;DHT22;38045;52.988;6.536;2023-11-21T00:09:21;8.40;80.30
52034;DHT22;38045;52.988;6.536;2023-11-21T00:11:47;8.40;80.30
52034;DHT22;38045;52.988;6.536;2023-11-21T00:14:12;8.40;80.20
52034;DHT22;38045;52.988;6.536;2023-11-21T00:16:41;8.40;80.10
52034;DHT22;38045;52.988;6.536;2023-11-21T00:19:06;8.40;80.10
52034;DHT22;38045;52.988;6.536;2023-11-21T00:21:32;8.40;80.10
52034;DHT22;38045;52.988;6.536;2023-11-21T00:23:57;8.30;80.20
52034;DHT22;38045;52.988;6.536;2023-11-21T00:26:23;8.30;80.10
52034;DHT22;38045;52.988;6.536;2023-11-21T00:28:50;8.30;80.20
52034;DHT22;38045;52.988;6.536;2023-11-21T00:31:16;8.30;80.30
52034;DHT22;38045;52.988;6.536;2023-11-21T00:33:41;8.30;80.20
52034;DHT22;38045;52.988;6.536;2023-11-21T00:36:07;8.30;80.20
52034;DHT22;38045;52.988;6.536;2023-11-21T00:38:35;8.30;80.20
52034;DHT22;38045;52.988;6.536;2023-11-21T00:41:01;8.20;80.20
52034;DHT22;38045;52.988;6.536;2023-11-21T00:43:28;8.30;80.30
52034;DHT22;38045;52.988;6.536;2023-11-21T00:45:54;8.30;80.30
52034;DHT22;38045;52.988;6.536;2023-11-21T00:48:19;8.30;80.20
52034;DHT22;38045;52.988;6.536;2023-11-21T00:50:45;8.30;80.20
52034;DHT22;38045;52.988;6.536;2023-11-21T00:53:10;8.20;80.20
52034;DHT22;38045;52.988;6.536;2023-11-21T00:55:37;8.30;80.20
52034;DHT22;38045;52.988;6.536;2023-11-21T00:58:05;8.20;80.20
52034;DHT22;38045;52.988;6.536;2023-11-21T01:00:35;8.20;80.30
52034;DHT22;38045;52.988;6.536;2023-11-21T01:03:00;8.20;80.20
52034;DHT22;38045;52.988;6.536;2023-11-21T01:05:26;8.20;80.20
52034;DHT22;38045;52.988;6.536;2023-11-21T01:07:52;8.20;80.40
52034;DHT22;38045;52.988;6.536;2023-11-21T01:10:18;8.20;80.50
52034;DHT22;38045;52.988;6.536;2023-11-21T01:12:44;8.30;80.40
52034;DHT22;38045;52.988;6.536;2023-11-21T01:15:09;8.20;80.40
52034;DHT22;38045;52.988;6.536;2023-11-21T01:17:37;8.30;80.40
52034;DHT22;38045;52.988;6.536;2023-11-21T01:20:04;8.30;80.30
52034;DHT22;38045;52.988;6.536;2023-11-21T01:22:36;8.30;80.50
52034;DHT22;38045;52.988;6.536;2023-11-21T01:25:02;8.30;80.40
52034;DHT22;38045;52.988;6.536;2023-11-21T01:27:29;8.30;80.40
52034;DHT22;38045;52.988;6.536;2023-11-21T01:29:55;8.30;80.40
52034;DHT22;38045;52.988;6.536;2023-11-21T01:32:21;8.30;80.50
52034;DHT22;38045;52.988;6.536;2023-11-21T01:34:47;8.30;80.50
52034;DHT22;38045;52.988;6.536;2023-11-21T01:37:13;8.30;80.60
52034;DHT22;38045;52.988;6.536;2023-11-21T01:39:39;8.30;80.60
52034;DHT22;38045;52.988;6.536;2023-11-21T01:42:05;8.30;80.80
52034;DHT22;38045;52.988;6.536;2023-11-21T01:44:31;8.30;80.90
52034;DHT22;38045;52.988;6.536;2023-11-21T01:46:57;8.30;80.80
52034;DHT22;38045;52.988;6.536;2023-11-21T01:49:23;8.30;80.90
52034;DHT22;38045;52.988;6.536;2023-11-21T01:51:49;8.40;80.80
52034;DHT22;38045;52.988;6.536;2023-11-21T01:54:17;8.40;80.80
52034;DHT22;38045;52.988;6.536;2023-11-21T01:56:47;8.40;80.80
52034;DHT22;38045;52.988;6.536;2023-11-21T01:59:14;8.40;80.80
52034;DHT22;38045;52.988;6.536;2023-11-21T02:01:42;8.40;81.00
52034;DHT22;38045;52.988;6.536;2023-11-21T02:04:07;8.40;81.10
52034;DHT22;38045;52.988;6.536;2023-11-21T02:06:33;8.40;81.00
52034;DHT22;38045;52.988;6.536;2023-11-21T02:08:59;8.40;81.00
52034;DHT22;38045;52.988;6.536;2023-11-21T02:11:25;8.40;81.00
52034;DHT22;38045;52.988;6.536;2023-11-21T02:13:51;8.40;80.90
52034;DHT22;38045;52.988;6.536;2023-11-21T02:16:19;8.40;81.10
52034;DHT22;38045;52.988;6.536;2023-11-21T02:18:47;8.50;81.00
52034;DHT22;38045;52.988;6.536;2023-11-21T02:21:14;8.50;81.00
52034;DHT22;38045;52.988;6.536;2023-11-21T02:23:39;8.50;80.80
52034;DHT22;38045;52.988;6.536;2023-11-21T02:26:10;8.50;80.90
52034;DHT22;38045;52.988;6.536;2023-11-21T02:28:36;8.50;81.10
52034;DHT22;38045;52.988;6.536;2023-11-21T02:31:02;8.50;81.00
52034;DHT22;38045;52.988;6.536;2023-11-21T02:33:30;8.50;81.20
52034;DHT22;38045;52.988;6.536;2023-11-21T02:35:57;8.50;81.20
52034;DHT22;38045;52.988;6.536;2023-11-21T02:38:22;8.50;81.20
52034;DHT22;38045;52.988;6.536;2023-11-21T02:40:48;8.50;81.20
52034;DHT22;38045;52.988;6.536;2023-11-21T02:43:14;8.50;81.20
52034;DHT22;38045;52.988;6.536;2023-11-21T02:45:40;8.50;81.30
52034;DHT22;38045;52.988;6.536;2023-11-21T02:48:07;8.50;81.40
52034;DHT22;38045;52.988;6.536;2023-11-21T02:50:32;8.50;81.40
52034;DHT22;38045;52.988;6.536;2023-11-21T02:52:58;8.50;81.30
52034;DHT22;38045;52.988;6.536;2023-11-21T02:55:26;8.60;81.30
52034;DHT22;38045;52.988;6.536;2023-11-21T02:57:52;8.60;81.40
52034;DHT22;38045;52.988;6.536;2023-11-21T03:00:17;8.60;81.30
52034;DHT22;38045;52.988;6.536;2023-11-21T03:02:43;8.60;81.40
52034;DHT22;38045;52.988;6.536;2023-11-21T03:05:09;8.60;81.30
52034;DHT22;38045;52.988;6.536;2023-11-21T03:07:36;8.60;81.40
52034;DHT22;38045;52.988;6.536;2023-11-21T03:10:03;8.60;81.40
52034;DHT22;38045;52.988;6.536;2023-11-21T03:12:29;8.60;81.50
52034;DHT22;38045;52.988;6.536;2023-11-21T03:14:55;8.60;81.50
52034;DHT22;38045;52.988;6.536;2023-11-21T03:17:21;8.60;81.40
52034;DHT22;38045;52.988;6.536;2023-11-21T03:19:47;8.60;81.50
52034;DHT22;38045;52.988;6.536;2023-11-21T03:22:12;8.60;81.50
52034;DHT22;38045;52.988;6.536;2023-11-21T03:24:38;8.60;81.50
52034;DHT22;38045;52.988;6.536;2023-11-21T03:27:04;8.60;81.50
52034;DHT22;38045;52.988;6.536;2023-11-21T03:29:30;8.60;81.50
52034;DHT22;38045;52.988;6.536;2023-11-21T03:31:56;8.60;81.50
52034;DHT22;38045;52.988;6.536;2023-11-21T03:34:26;8.60;81.50
52034;DHT22;38045;52.988;6.536;2023-11-21T03:36:52;8.60;81.40
52034;DHT22;38045;52.988;6.536;2023-11-21T03:39:20;8.60;81.50
52034;DHT22;38045;52.988;6.536;2023-11-21T03:41:46;8.60;81.40
52034;DHT22;38045;52.988;6.536;2023-11-21T03:44:11;8.60;81.20
52034;DHT22;38045;52.988;6.536;2023-11-21T03:46:37;8.60;81.30
52034;DHT22;38045;52.988;6.536;2023-11-21T03:49:03;8.60;81.40
52034;DHT22;38045;52.988;6.536;2023-11-21T03:51:28;8.60;81.40
52034;DHT22;38045;52.988;6.536;2023-11-21T03:53:54;8.60;81.40
52034;DHT22;38045;52.988;6.536;2023-11-21T03:56:20;8.70;81.40
52034;DHT22;38045;52.988;6.536;2023-11-21T03:58:48;8.70;81.50
52034;DHT22;38045;52.988;6.536;2023-11-21T04:01:23;8.70;81.50
52034;DHT22;38045;52.988;6.536;2023-11-21T04:03:50;8.80;81.40
52034;DHT22;38045;52.988;6.536;2023-11-21T04:06:16;8.70;81.40
52034;DHT22;38045;52.988;6.536;2023-11-21T04:08:45;8.70;81.40
52034;DHT22;38045;52.988;6.536;2023-11-21T04:11:12;8.70;81.40
52034;DHT22;38045;52.988;6.536;2023-11-21T04:13:40;8.70;81.40
52034;DHT22;38045;52.988;6.536;2023-11-21T04:16:08;8.60;81.40
52034;DHT22;38045;52.988;6.536;2023-11-21T04:18:37;8.60;81.40
52034;DHT22;38045;52.988;6.536;2023-11-21T04:21:04;8.60;81.40
52034;DHT22;38045;52.988;6.536;2023-11-21T04:23:29;8.60;81.50
52034;DHT22;38045;52.988;6.536;2023-11-21T04:25:57;8.60;81.50
52034;DHT22;38045;52.988;6.536;2023-11-21T04:28:23;8.60;81.50
52034;DHT22;38045;52.988;6.536;2023-11-21T04:30:50;8.60;81.50
52034;DHT22;38045;52.988;6.536;2023-11-21T04:33:15;8.60;81.60
52034;DHT22;38045;52.988;6.536;2023-11-21T04:35:41;8.60;81.50
52034;DHT22;38045;52.988;6.536;2023-11-21T04:38:07;8.60;81.60
52034;DHT22;38045;52.988;6.536;2023-11-21T04:40:33;8.60;81.60
52034;DHT22;38045;52.988;6.536;2023-11-21T04:42:58;8.60;81.70
52034;DHT22;38045;52.988;6.536;2023-11-21T04:45:24;8.60;81.50
52034;DHT22;38045;52.988;6.536;2023-11-21T04:47:50;8.60;81.60
52034;DHT22;38045;52.988;6.536;2023-11-21T04:50:15;8.60;81.60
52034;DHT22;38045;52.988;6.536;2023-11-21T04:52:41;8.70;81.60
52034;DHT22;38045;52.988;6.536;2023-11-21T04:55:07;8.70;81.60
52034;DHT22;38045;52.988;6.536;2023-11-21T04:57:36;8.70;81.60
52034;DHT22;38045;52.988;6.536;2023-11-21T05:00:02;8.80;81.60
52034;DHT22;38045;52.988;6.536;2023-11-21T05:02:31;8.80;81.60
52034;DHT22;38045;52.988;6.536;2023-11-21T05:04:57;8.80;81.50
52034;DHT22;38045;52.988;6.536;2023-11-21T05:07:22;8.80;81.60
52034;DHT22;38045;52.988;6.536;2023-11-21T05:09:48;8.80;81.50
52034;DHT22;38045;52.988;6.536;2023-11-21T05:12:14;8.80;81.60
52034;DHT22;38045;52.988;6.536;2023-11-21T05:14:40;8.80;81.50
52034;DHT22;38045;52.988;6.536;2023-11-21T05:17:05;8.80;81.50
52034;DHT22;38045;52.988;6.536;2023-11-21T05:19:31;8.80;81.40
52034;DHT22;38045;52.988;6.536;2023-11-21T05:21:58;8.70;81.40
52034;DHT22;38045;52.988;6.536;2023-11-21T05:24:26;8.70;81.50
52034;DHT22;38045;52.988;6.536;2023-11-21T05:26:51;8.70;81.50
52034;DHT22;38045;52.988;6.536;2023-11-21T05:29:17;8.80;81.50
52034;DHT22;38045;52.988;6.536;2023-11-21T05:31:42;8.80;81.50
52034;DHT22;38045;52.988;6.536;2023-11-21T05:34:08;8.80;81.50
52034;DHT22;38045;52.988;6.536;2023-11-21T05:36:33;8.70;81.50
52034;DHT22;38045;52.988;6.536;2023-11-21T05:38:59;8.80;81.60
52034;DHT22;38045;52.988;6.536;2023-11-21T05:41:24;8.80;81.60
52034;DHT22;38045;52.988;6.536;2023-11-21T05:43:51;8.80;81.60
52034;DHT22;38045;52.988;6.536;2023-11-21T05:46:16;8.80;81.50
52034;DHT22;38045;52.988;6.536;2023-11-21T05:48:42;8.80;81.60
52034;DHT22;38045;52.988;6.536;2023-11-21T05:51:07;8.80;81.60
52034;DHT22;38045;52.988;6.536;2023-11-21T05:53:34;8.80;81.60
52034;DHT22;38045;52.988;6.536;2023-11-21T05:56:00;8.80;81.50
52034;DHT22;38045;52.988;6.536;2023-11-21T05:58:25;8.80;81.50
52034;DHT22;38045;52.988;6.536;2023-11-21T06:00:51;8.80;81.50
52034;DHT22;38045;52.988;6.536;2023-11-21T06:03:17;8.80;81.50
52034;DHT22;38045;52.988;6.536;2023-11-21T06:05:42;8.80;81.60
52034;DHT22;38045;52.988;6.536;2023-11-21T06:08:09;8.70;81.60
52034;DHT22;38045;52.988;6.536;2023-11-21T06:10:36;8.80;81.60
52034;DHT22;38045;52.988;6.536;2023-11-21T06:13:01;8.80;81.60
52034;DHT22;38045;52.988;6.536;2023-11-21T06:15:29;8.70;81.60
52034;DHT22;38045;52.988;6.536;2023-11-21T06:17:54;8.80;81.60
52034;DHT22;38045;52.988;6.536;2023-11-21T06:20:21;8.80;81.60
52034;DHT22;38045;52.988;6.536;2023-11-21T06:22:49;8.80;81.60
52034;DHT22;38045;52.988;6.536;2023-11-21T06:25:15;8.80;81.60
52034;DHT22;38045;52.988;6.536;2023-11-21T06:27:45;8.80;81.60
52034;DHT22;38045;52.988;6.536;2023-11-21T06:30:12;8.80;81.50
52034;DHT22;38045;52.988;6.536;2023-11-21T06:32:39;8.70;81.50
52034;DHT22;38045;52.988;6.536;2023-11-21T06:35:06;8.80;81.50
52034;DHT22;38045;52.988;6.536;2023-11-21T06:37:32;8.70;81.50
52034;DHT22;38045;52.988;6.536;2023-11-21T06:39:59;8.70;81.60
52034;DHT22;38045;52.988;6.536;2023-11-21T06:42:25;8.70;81.50
52034;DHT22;38045;52.988;6.536;2023-11-21T06:44:51;8.70;81.50
52034;DHT22;38045;52.988;6.536;2023-11-21T06:47:18;8.70;81.50
52034;DHT22;38045;52.988;6.536;2023-11-21T06:49:45;8.70;81.50
52034;DHT22;38045;52.988;6.536;2023-11-21T06:52:13;8.70;81.50
52034;DHT22;38045;52.988;6.536;2023-11-21T06:54:39;8.70;81.50
52034;DHT22;38045;52.988;6.536;2023-11-21T06:57:05;8.60;81.40
52034;DHT22;38045;52.988;6.536;2023-11-21T06:59:30;8.60;81.40
52034;DHT22;38045;52.988;6.536;2023-11-21T07:01:56;8.60;81.40
52034;DHT22;38045;52.988;6.536;2023-11-21T07:04:22;8.60;81.40
52034;DHT22;38045;52.988;6.536;2023-11-21T07:06:47;8.60;81.40
52034;DHT22;38045;52.988;6.536;2023-11-21T07:09:13;8.60;81.40
52034;DHT22;38045;52.988;6.536;2023-11-21T07:11:39;8.60;81.40
52034;DHT22;38045;52.988;6.536;2023-11-21T07:14:04;8.60;81.40
52034;DHT22;38045;52.988;6.536;2023-11-21T07:16:37;8.60;81.40
52034;DHT22;38045;52.988;6.536;2023-11-21T07:19:06;8.60;81.40
52034;DHT22;38045;52.988;6.536;2023-11-21T07:21:36;8.60;81.40
52034;DHT22;38045;52.988;6.536;2023-11-21T07:24:01;8.60;81.50
52034;DHT22;38045;52.988;6.536;2023-11-21T07:26:27;8.60;81.40
52034;DHT22;38045;52.988;6.536;2023-11-21T07:28:53;8.70;81.40
52034;DHT22;38045;52.988;6.536;2023-11-21T07:31:19;8.60;81.40
52034;DHT22;38045;52.988;6.536;2023-11-21T07:33:46;8.60;81.40
52034;DHT22;38045;52.988;6.536;2023-11-21T07:36:15;8.60;81.40
52034;DHT22;38045;52.988;6.536;2023-11-21T07:38:42;8.70;81.50
52034;DHT22;38045;52.988;6.536;2023-11-21T07:41:08;8.70;81.50
52034;DHT22;38045;52.988;6.536;2023-11-21T07:43:35;8.80;81.40
52034;DHT22;38045;52.988;6.536;2023-11-21T07:46:01;8.70;81.40
52034;DHT22;38045;52.988;6.536;2023-11-21T07:48:29;8.80;81.40
52034;DHT22;38045;52.988;6.536;2023-11-21T07:50:54;8.80;81.30
52034;DHT22;38045;52.988;6.536;2023-11-21T07:53:20;8.70;81.30
52034;DHT22;38045;52.988;6.536;2023-11-21T07:55:46;8.70;81.30
52034;DHT22;38045;52.988;6.536;2023-11-21T07:58:12;8.70;81.40
52034;DHT22;38045;52.988;6.536;2023-11-21T08:00:38;8.70;81.30
52034;DHT22;38045;52.988;6.536;2023-11-21T08:03:05;8.70;81.40
52034;DHT22;38045;52.988;6.536;2023-11-21T08:05:31;8.70;81.40
52034;DHT22;38045;52.988;6.536;2023-11-21T08:07:57;8.70;81.40
52034;DHT22;38045;52.988;6.536;2023-11-21T08:10:22;8.60;81.40
52034;DHT22;38045;52.988;6.536;2023-11-21T08:12:48;8.60;81.40
52034;DHT22;38045;52.988;6.536;2023-11-21T08:15:16;8.60;81.40
52034;DHT22;38045;52.988;6.536;2023-11-21T08:17:41;8.60;81.30
52034;DHT22;38045;52.988;6.536;2023-11-21T08:20:07;8.60;81.30
52034;DHT22;38045;52.988;6.536;2023-11-21T08:22:34;8.60;81.30
52034;DHT22;38045;52.988;6.536;2023-11-21T08:24:59;8.60;81.20
52034;DHT22;38045;52.988;6.536;2023-11-21T08:27:25;8.60;81.10
52034;DHT22;38045;52.988;6.536;2023-11-21T08:29:51;8.50;81.10
52034;DHT22;38045;52.988;6.536;2023-11-21T08:32:18;8.50;81.20
52034;DHT22;38045;52.988;6.536;2023-11-21T08:34:43;8.50;81.10
52034;DHT22;38045;52.988;6.536;2023-11-21T08:37:10;8.50;81.10
52034;DHT22;38045;52.988;6.536;2023-11-21T08:39:39;8.50;81.10
52034;DHT22;38045;52.988;6.536;2023-11-21T08:42:07;8.50;81.10
52034;DHT22;38045;52.988;6.536;2023-11-21T08:44:33;8.40;81.10
52034;DHT22;38045;52.988;6.536;2023-11-21T08:46:59;8.40;81.10
52034;DHT22;38045;52.988;6.536;2023-11-21T08:49:24;8.40;81.10
52034;DHT22;38045;52.988;6.536;2023-11-21T08:51:53;8.40;81.10
52034;DHT22;38045;52.988;6.536;2023-11-21T08:54:20;8.40;81.00
52034;DHT22;38045;52.988;6.536;2023-11-21T08:56:46;8.40;81.00
52034;DHT22;38045;52.988;6.536;2023-11-21T08:59:13;8.40;80.90
52034;DHT22;38045;52.988;6.536;2023-11-21T09:01:39;8.30;80.80
52034;DHT22;38045;52.988;6.536;2023-11-21T09:04:06;8.30;80.90
52034;DHT22;38045;52.988;6.536;2023-11-21T09:06:31;8.30;80.90
52034;DHT22;38045;52.988;6.536;2023-11-21T09:08:57;8.30;80.90
52034;DHT22;38045;52.988;6.536;2023-11-21T09:11:23;8.20;80.90
52034;DHT22;38045;52.988;6.536;2023-11-21T09:13:50;8.20;80.90
52034;DHT22;38045;52.988;6.536;2023-11-21T09:16:16;8.30;80.90
52034;DHT22;38045;52.988;6.536;2023-11-21T09:18:42;8.30;80.90
52034;DHT22;38045;52.988;6.536;2023-11-21T09:21:08;8.30;80.90
52034;DHT22;38045;52.988;6.536;2023-11-21T09:23:35;8.30;80.90
52034;DHT22;38045;52.988;6.536;2023-11-21T09:26:01;8.30;80.80
52034;DHT22;38045;52.988;6.536;2023-11-21T09:28:27;8.30;80.70
52034;DHT22;38045;52.988;6.536;2023-11-21T09:30:53;8.30;80.60
52034;DHT22;38045;52.988;6.536;2023-11-21T09:33:19;8.30;80.50
52034;DHT22;38045;52.988;6.536;2023-11-21T09:35:46;8.20;80.40
52034;DHT22;38045;52.988;6.536;2023-11-21T09:38:11;8.20;80.40
52034;DHT22;38045;52.988;6.536;2023-11-21T09:40:38;8.20;80.50
52034;DHT22;38045;52.988;6.536;2023-11-21T09:43:09;8.20;80.40
52034;DHT22;38045;52.988;6.536;2023-11-21T09:45:46;8.20;80.50
52034;DHT22;38045;52.988;6.536;2023-11-21T09:48:14;8.10;80.40
52034;DHT22;38045;52.988;6.536;2023-11-21T09:50:42;8.10;80.50
52034;DHT22;38045;52.988;6.536;2023-11-21T09:53:19;8.10;80.40
52034;DHT22;38045;52.988;6.536;2023-11-21T09:55:53;8.10;80.40
52034;DHT22;38045;52.988;6.536;2023-11-21T09:58:23;8.10;80.50
52034;DHT22;38045;52.988;6.536;2023-11-21T10:00:53;8.10;80.50
52034;DHT22;38045;52.988;6.536;2023-11-21T10:03:19;8.10;80.50
52034;DHT22;38045;52.988;6.536;2023-11-21T10:05:45;8.10;80.50
52034;DHT22;38045;52.988;6.536;2023-11-21T10:08:15;8.20;80.40
52034;DHT22;38045;52.988;6.536;2023-11-21T10:10:46;8.10;80.40
52034;DHT22;38045;52.988;6.536;2023-11-21T10:13:14;8.20;80.40
52034;DHT22;38045;52.988;6.536;2023-11-21T10:15:42;8.20;80.40
52034;DHT22;38045;52.988;6.536;2023-11-21T10:18:14;8.20;80.30
52034;DHT22;38045;52.988;6.536;2023-11-21T10:20:40;8.20;80.30
52034;DHT22;38045;52.988;6.536;2023-11-21T10:23:06;8.20;80.30
52034;DHT22;38045;52.988;6.536;2023-11-21T10:25:33;8.20;80.20
52034;DHT22;38045;52.988;6.536;2023-11-21T10:28:01;8.20;79.90
52034;DHT22;38045;52.988;6.536;2023-11-21T10:30:36;8.20;79.80
52034;DHT22;38045;52.988;6.536;2023-11-21T10:33:07;8.20;79.70
52034;DHT22;38045;52.988;6.536;2023-11-21T10:35:44;8.10;79.70
52034;DHT22;38045;52.988;6.536;2023-11-21T10:38:19;8.20;79.70
52034;DHT22;38045;52.988;6.536;2023-11-21T10:40:46;8.20;79.60
52034;DHT22;38045;52.988;6.536;2023-11-21T10:43:13;8.20;79.70
52034;DHT22;38045;52.988;6.536;2023-11-21T10:45:41;8.20;79.60
52034;DHT22;38045;52.988;6.536;2023-11-21T10:48:12;8.20;79.50
52034;DHT22;38045;52.988;6.536;2023-11-21T10:50:41;8.20;79.10
52034;DHT22;38045;52.988;6.536;2023-11-21T10:53:06;8.20;79.30
52034;DHT22;38045;52.988;6.536;2023-11-21T10:55:33;8.20;79.10
52034;DHT22;38045;52.988;6.536;2023-11-21T10:58:02;8.30;78.90
52034;DHT22;38045;52.988;6.536;2023-11-21T11:00:31;8.30;78.70
52034;DHT22;38045;52.988;6.536;2023-11-21T11:02:56;8.40;79.40
52034;DHT22;38045;52.988;6.536;2023-11-21T11:05:25;8.40;79.10
52034;DHT22;38045;52.988;6.536;2023-11-21T11:08:00;8.50;79.10
52034;DHT22;38045;52.988;6.536;2023-11-21T11:10:28;8.50;78.70
52034;DHT22;38045;52.988;6.536;2023-11-21T11:12:57;8.60;78.80
52034;DHT22;38045;52.988;6.536;2023-11-21T11:15:24;8.60;77.60
52034;DHT22;38045;52.988;6.536;2023-11-21T11:17:50;8.60;78.00
52034;DHT22;38045;52.988;6.536;2023-11-21T11:20:16;8.60;77.20
52034;DHT22;38045;52.988;6.536;2023-11-21T11:23:22;8.70;77.10
52034;DHT22;38045;52.988;6.536;2023-11-21T11:32:48;8.80;76.50
52034;DHT22;38045;52.988;6.536;2023-11-21T11:35:17;8.80;76.50
52034;DHT22;38045;52.988;6.536;2023-11-21T11:37:44;8.80;77.50
52034;DHT22;38045;52.988;6.536;2023-11-21T11:40:13;8.80;76.20
52034;DHT22;38045;52.988;6.536;2023-11-21T11:42:39;8.70;76.40
52034;DHT22;38045;52.988;6.536;2023-11-21T11:45:20;8.60;76.10
52034;DHT22;38045;52.988;6.536;2023-11-21T11:47:47;8.60;76.50
52034;DHT22;38045;52.988;6.536;2023-11-21T11:50:13;8.60;76.90
52034;DHT22;38045;52.988;6.536;2023-11-21T11:52:53;8.60;75.80
52034;DHT22;38045;52.988;6.536;2023-11-21T11:55:21;8.60;77.00
52034;DHT22;38045;52.988;6.536;2023-11-21T11:57:51;8.60;76.30
52034;DHT22;38045;52.988;6.536;2023-11-21T12:00:17;8.60;75.70
52034;DHT22;38045;52.988;6.536;2023-11-21T12:02:49;8.60;75.50
52034;DHT22;38045;52.988;6.536;2023-11-21T12:05:16;8.60;75.80
52034;DHT22;38045;52.988;6.536;2023-11-21T12:07:47;8.60;75.30
52034;DHT22;38045;52.988;6.536;2023-11-21T12:10:15;8.60;75.70
52034;DHT22;38045;52.988;6.536;2023-11-21T12:12:48;8.60;76.00
52034;DHT22;38045;52.988;6.536;2023-11-21T12:15:15;8.70;76.80
52034;DHT22;38045;52.988;6.536;2023-11-21T12:17:42;8.70;75.70
52034;DHT22;38045;52.988;6.536;2023-11-21T12:20:12;8.80;75.50
52034;DHT22;38045;52.988;6.536;2023-11-21T12:22:49;8.80;75.60
52034;DHT22;38045;52.988;6.536;2023-11-21T12:27:49;8.80;74.60
52034;DHT22;38045;52.988;6.536;2023-11-21T12:30:16;8.70;74.50
52034;DHT22;38045;52.988;6.536;2023-11-21T12:32:43;8.70;74.80
52034;DHT22;38045;52.988;6.536;2023-11-21T12:35:11;8.70;75.50
52034;DHT22;38045;52.988;6.536;2023-11-21T12:37:41;8.60;73.80
52034;DHT22;38045;52.988;6.536;2023-11-21T12:40:10;8.70;73.70
52034;DHT22;38045;52.988;6.536;2023-11-21T12:42:46;8.80;74.70
52034;DHT22;38045;52.988;6.536;2023-11-21T12:47:49;9.00;74.20
52034;DHT22;38045;52.988;6.536;2023-11-21T12:50:19;9.10;74.50
52034;DHT22;38045;52.988;6.536;2023-11-21T12:52:47;9.20;75.80
52034;DHT22;38045;52.988;6.536;2023-11-21T12:55:22;9.20;73.60
52034;DHT22;38045;52.988;6.536;2023-11-21T12:57:55;9.30;72.00
52034;DHT22;38045;52.988;6.536;2023-11-21T13:00:31;9.40;73.20
52034;DHT22;38045;52.988;6.536;2023-11-21T13:02:58;9.60;74.00
52034;DHT22;38045;52.988;6.536;2023-11-21T13:05:31;10.00;72.80
52034;DHT22;38045;52.988;6.536;2023-11-21T13:08:00;10.00;72.50
52034;DHT22;38045;52.988;6.536;2023-11-21T13:10:29;9.80;71.90
52034;DHT22;38045;52.988;6.536;2023-11-21T13:12:57;9.60;71.80
52034;DHT22;38045;52.988;6.536;2023-11-21T13:15:27;9.40;72.10
52034;DHT22;38045;52.988;6.536;2023-11-21T13:17:54;9.30;71.20
52034;DHT22;38045;52.988;6.536;2023-11-21T13:20:21;9.20;72.50
52034;DHT22;38045;52.988;6.536;2023-11-21T13:22:52;9.10;72.50
52034;DHT22;38045;52.988;6.536;2023-11-21T13:25:28;9.00;72.20
52034;DHT22;38045;52.988;6.536;2023-11-21T13:27:58;9.00;71.90
52034;DHT22;38045;52.988;6.536;2023-11-21T13:30:28;9.00;71.80
52034;DHT22;38045;52.988;6.536;2023-11-21T13:33:02;8.90;72.00
52034;DHT22;38045;52.988;6.536;2023-11-21T13:35:32;8.90;72.50
52034;DHT22;38045;52.988;6.536;2023-11-21T13:38:12;9.00;72.60
52034;DHT22;38045;52.988;6.536;2023-11-21T13:40:39;9.10;74.00
52034;DHT22;38045;52.988;6.536;2023-11-21T13:43:13;9.20;72.70
52034;DHT22;38045;52.988;6.536;2023-11-21T13:45:43;9.40;71.60
52034;DHT22;38045;52.988;6.536;2023-11-21T13:48:10;9.50;72.00
52034;DHT22;38045;52.988;6.536;2023-11-21T13:50:36;9.50;71.50
52034;DHT22;38045;52.988;6.536;2023-11-21T13:53:03;9.50;70.90
52034;DHT22;38045;52.988;6.536;2023-11-21T13:55:36;9.50;70.40
52034;DHT22;38045;52.988;6.536;2023-11-21T13:58:04;9.50;71.30
52034;DHT22;38045;52.988;6.536;2023-11-21T14:00:34;9.40;70.50
52034;DHT22;38045;52.988;6.536;2023-11-21T14:03:10;9.40;71.40
52034;DHT22;38045;52.988;6.536;2023-11-21T14:05:44;9.20;70.50
52034;DHT22;38045;52.988;6.536;2023-11-21T14:08:13;9.00;70.70
52034;DHT22;38045;52.988;6.536;2023-11-21T14:10:42;8.90;71.00
52034;DHT22;38045;52.988;6.536;2023-11-21T14:13:11;8.80;71.80
52034;DHT22;38045;52.988;6.536;2023-11-21T14:15:39;8.70;71.70
52034;DHT22;38045;52.988;6.536;2023-11-21T14:18:08;8.60;71.80
52034;DHT22;38045;52.988;6.536;2023-11-21T14:20:40;8.60;72.00
52034;DHT22;38045;52.988;6.536;2023-11-21T14:23:06;8.50;71.90
52034;DHT22;38045;52.988;6.536;2023-11-21T14:25:35;8.50;71.80
52034;DHT22;38045;52.988;6.536;2023-11-21T14:28:05;8.40;72.30
52034;DHT22;38045;52.988;6.536;2023-11-21T14:30:37;8.40;71.80
52034;DHT22;38045;52.988;6.536;2023-11-21T14:33:05;8.30;71.60
52034;DHT22;38045;52.988;6.536;2023-11-21T14:35:31;8.30;71.80
52034;DHT22;38045;52.988;6.536;2023-11-21T14:37:58;8.20;71.90
52034;DHT22;38045;52.988;6.536;2023-11-21T14:40:25;8.20;72.30
52034;DHT22;38045;52.988;6.536;2023-11-21T14:42:51;8.20;72.30
52034;DHT22;38045;52.988;6.536;2023-11-21T14:45:21;8.20;72.50
52034;DHT22;38045;52.988;6.536;2023-11-21T14:47:48;8.20;72.50
52034;DHT22;38045;52.988;6.536;2023-11-21T14:50:24;8.10;72.50
52034;DHT22;38045;52.988;6.536;2023-11-21T14:53:14;8.10;72.80
52034;DHT22;38045;52.988;6.536;2023-11-21T14:55:41;8.10;73.10
52034;DHT22;38045;52.988;6.536;2023-11-21T14:58:16;8.10;73.00
52034;DHT22;38045;52.988;6.536;2023-11-21T15:00:49;8.00;72.70
52034;DHT22;38045;52.988;6.536;2023-11-21T15:03:17;8.00;72.60
52034;DHT22;38045;52.988;6.536;2023-11-21T15:06:08;8.00;72.80
52034;DHT22;38045;52.988;6.536;2023-11-21T15:08:56;8.00;72.90
52034;DHT22;38045;52.988;6.536;2023-11-21T15:11:44;8.00;73.00
52034;DHT22;38045;52.988;6.536;2023-11-21T15:14:11;8.00;73.10
52034;DHT22;38045;52.988;6.536;2023-11-21T15:16:41;8.00;73.00
52034;DHT22;38045;52.988;6.536;2023-11-21T15:19:11;8.00;73.10
52034;DHT22;38045;52.988;6.536;2023-11-21T15:21:44;7.90;73.00
52034;DHT22;38045;52.988;6.536;2023-11-21T15:24:11;7.90;73.00
52034;DHT22;38045;52.988;6.536;2023-11-21T15:26:37;7.90;73.20
52034;DHT22;38045;52.988;6.536;2023-11-21T15:29:02;7.90;73.20
52034;DHT22;38045;52.988;6.536;2023-11-21T15:31:28;7.80;72.60
52034;DHT22;38045;52.988;6.536;2023-11-21T15:33:53;7.80;72.90
52034;DHT22;38045;52.988;6.536;2023-11-21T15:36:20;7.80;73.00
52034;DHT22;38045;52.988;6.536;2023-11-21T15:38:46;7.80;73.00
52034;DHT22;38045;52.988;6.536;2023-11-21T15:41:11;7.80;72.80
52034;DHT22;38045;52.988;6.536;2023-11-21T15:43:37;7.80;72.90
52034;DHT22;38045;52.988;6.536;2023-11-21T15:46:03;7.80;72.90
52034;DHT22;38045;52.988;6.536;2023-11-21T15:48:34;7.70;73.00
52034;DHT22;38045;52.988;6.536;2023-11-21T15:51:01;7.70;73.20
52034;DHT22;38045;52.988;6.536;2023-11-21T15:53:28;7.70;72.90
52034;DHT22;38045;52.988;6.536;2023-11-21T15:55:54;7.70;73.00
52034;DHT22;38045;52.988;6.536;2023-11-21T15:58:19;7.60;73.10
52034;DHT22;38045;52.988;6.536;2023-11-21T16:00:45;7.60;73.30